Darstellungsparameter: Aktuell verwendete Einstellungen:
Skalierung der Graphiken ... ?
xyx+y,   Skalierungsfaktor:      Skalierung: Modus: x, Faktor: 1
Darstellungszeitraum ... ?
Vom - - bis: - -   Zeitraum: 06.03.2021 - 06.03.2021
Min/Max/Avg-Anzeige ... ?
Zeige MMA aktuell
Zeige MMA Monat
Zeige MMA alles
Zeige --A aktuell
Zeige --A Monat
Zeige --A alles
Keine MMA-Anzeige
MMA:
Keine MMA-Graphiken
MMA-Basis: 06.03.2021 - 06.03.2021
Quicknavigation für Darstellung... ?
Tage:      1T, 2T, 3T, 5T -1T -2T -3T -5T +1T +2T +3T +5T
Wochen: 1W, 2W, 3W -1W -2W -3W +1W +2W +3W
Monate: 1M, 3M, 6M -1M -3M -6M +1M +3M +6M
Jahre:    1J, 3J, 5J, 10J -1J -3J -5J -10J +1J +3J +5J +10J
Nutze für die Darstellung ... ?
Originaldaten oder Mittelwerte auf ...
Stundenbasis Tagesbasis Wochenbasis
Monatsbasis Jahresbasis      Datenbasis: Original-Daten
Darstellen als:
Statistik (Auto) Statistik J:M      Darstellung:

Der gewünschte Datumsbereich war nicht gültig/verfügbar und wurde korrigiert....
Das angegebene Enddatum (30.03.2021 23:59:59) liegt in der Zukunft.
Das angegebene Startdatum (30.03.2021 00:00:00) liegt in der Zukunft.


Zur Graphik,    zurück zur Übersicht aller Sensoren.
 
Tabellarische Datenbersicht: ?
 
Sensor: Nr:Datum:Temp:Abs-Feuchte:Windchill:Wind:
Aussen-T/F 1 06-03-2021 01:00:00 -2.4 C 3.69 g/m*3 -2.4 C 0 km/h
2 06-03-2021 01:05:00 -2.4 C 3.69 g/m*3 -2.4 C 0 km/h
3 06-03-2021 01:10:00 -2.4 C 3.69 g/m*3 -2.4 C 0 km/h
4 06-03-2021 01:15:00 -2.5 C 3.66 g/m*3 -2.5 C 0 km/h
5 06-03-2021 01:20:00 -2.6 C 3.64 g/m*3 -2.6 C 0 km/h
6 06-03-2021 01:25:00 -2.6 C 3.64 g/m*3 -2.6 C 0 km/h
7 06-03-2021 01:30:00 -2.7 C 3.61 g/m*3 -2.7 C 0 km/h
8 06-03-2021 01:35:00 -2.7 C 3.61 g/m*3 -2.7 C 0 km/h
9 06-03-2021 01:40:00 -2.7 C 3.61 g/m*3 -2.7 C 0 km/h
10 06-03-2021 01:45:00 -2.7 C 3.61 g/m*3 -2.7 C 0 km/h
11 06-03-2021 01:50:00 -2.8 C 3.63 g/m*3 -2.8 C 0 km/h
12 06-03-2021 01:55:00 -2.8 C 3.59 g/m*3 -2.8 C 0 km/h
13 06-03-2021 02:00:00 -2.8 C 3.63 g/m*3 -2.8 C 0 km/h
14 06-03-2021 02:05:00 -2.8 C 3.63 g/m*3 -2.8 C 0 km/h
15 06-03-2021 02:10:00 -2.8 C 3.63 g/m*3 -2.8 C 0 km/h
16 06-03-2021 02:15:00 -2.8 C 3.63 g/m*3 -2.8 C 0 km/h
17 06-03-2021 02:20:00 -2.8 C 3.63 g/m*3 -2.8 C 0 km/h
18 06-03-2021 02:25:00 -2.9 C 3.6 g/m*3 -2.9 C 0 km/h
19 06-03-2021 02:30:00 -2.9 C 3.6 g/m*3 -2.9 C 0 km/h
20 06-03-2021 02:35:00 -3 C 3.57 g/m*3 -3 C 0 km/h
21 06-03-2021 02:40:00 -3 C 3.57 g/m*3 -3 C 0 km/h
22 06-03-2021 02:45:00 -3 C 3.57 g/m*3 -3 C 0 km/h
23 06-03-2021 02:50:00 -3.1 C 3.55 g/m*3 -3.1 C 0 km/h
24 06-03-2021 02:55:00 -3.1 C 3.55 g/m*3 -3.1 C 0 km/h
25 06-03-2021 03:00:00 -3.2 C 3.52 g/m*3 -3.2 C 0 km/h
Sensor: Nr:Datum:Temp:Abs-Feuchte:Windchill:Wind:
Aussen-T/F 26 06-03-2021 03:05:00 -3.2 C 3.52 g/m*3 -3.2 C 0 km/h
27 06-03-2021 03:10:00 -3.3 C 3.5 g/m*3 -3.3 C 0 km/h
28 06-03-2021 03:15:00 -3.3 C 3.5 g/m*3 -3.3 C 0 km/h
29 06-03-2021 03:20:00 -3.3 C 3.5 g/m*3 -3.3 C 0 km/h
30 06-03-2021 03:25:00 -3.3 C 3.54 g/m*3 -3.3 C 0 km/h
31 06-03-2021 03:30:00 -3.3 C 3.54 g/m*3 -3.3 C 0 km/h
32 06-03-2021 03:35:00 -3.4 C 3.51 g/m*3 -3.4 C 0 km/h
33 06-03-2021 03:40:00 -3.4 C 3.51 g/m*3 -3.4 C 0 km/h
34 06-03-2021 03:45:00 -3.4 C 3.51 g/m*3 -3.4 C 0 km/h
35 06-03-2021 03:50:00 -3.5 C 3.49 g/m*3 -3.5 C 0 km/h
36 06-03-2021 03:55:00 -3.5 C 3.49 g/m*3 -3.5 C 0 km/h
37 06-03-2021 04:00:00 -3.4 C 3.51 g/m*3 -3.4 C 0 km/h
38 06-03-2021 04:05:00 -3.5 C 3.49 g/m*3 -3.5 C 0 km/h
39 06-03-2021 04:10:00 -3.5 C 3.49 g/m*3 -3.5 C 0 km/h
40 06-03-2021 04:15:00 -3.6 C 3.46 g/m*3 -3.6 C 0 km/h
41 06-03-2021 04:20:00 -3.6 C 3.46 g/m*3 -3.6 C 0 km/h
42 06-03-2021 04:25:00 -3.6 C 3.46 g/m*3 -3.6 C 0 km/h
43 06-03-2021 04:30:00 -3.7 C 3.44 g/m*3 -3.7 C 0 km/h
44 06-03-2021 04:35:00 -3.7 C 3.44 g/m*3 -3.7 C 0 km/h
45 06-03-2021 04:40:00 -3.7 C 3.44 g/m*3 -3.7 C 0 km/h
46 06-03-2021 04:45:00 -3.8 C 3.41 g/m*3 -3.8 C 0 km/h
47 06-03-2021 04:50:00 -3.8 C 3.41 g/m*3 -3.8 C 0 km/h
48 06-03-2021 04:55:00 -3.8 C 3.41 g/m*3 -3.8 C 0 km/h
49 06-03-2021 05:00:00 -3.9 C 3.39 g/m*3 -3.9 C 0 km/h
50 06-03-2021 05:05:00 -3.9 C 3.43 g/m*3 -3.9 C 0 km/h
Sensor: Nr:Datum:Temp:Abs-Feuchte:Windchill:Wind:
Aussen-T/F 51 06-03-2021 05:10:00 -3.9 C 3.43 g/m*3 -3.9 C 0 km/h
52 06-03-2021 05:15:00 -3.9 C 3.43 g/m*3 -3.9 C 0 km/h
53 06-03-2021 05:20:00 -3.9 C 3.43 g/m*3 -3.9 C 0 km/h
54 06-03-2021 05:25:00 -4 C 3.4 g/m*3 -4 C 0 km/h
55 06-03-2021 05:30:00 -4 C 3.4 g/m*3 -4 C 0 km/h
56 06-03-2021 05:35:00 -4 C 3.4 g/m*3 -4 C 0 km/h
57 06-03-2021 05:40:00 -4.1 C 3.38 g/m*3 -4.1 C 0 km/h
58 06-03-2021 05:45:00 -4.1 C 3.38 g/m*3 -4.1 C 0 km/h
59 06-03-2021 05:50:00 -4.2 C 3.35 g/m*3 -4.2 C 0 km/h
60 06-03-2021 05:55:00 -4.2 C 3.35 g/m*3 -4.2 C 0 km/h
61 06-03-2021 06:00:00 -4.2 C 3.35 g/m*3 -4.2 C 0 km/h
62 06-03-2021 06:05:00 -4.2 C 3.35 g/m*3 -4.2 C 0 km/h
63 06-03-2021 06:10:00 -4.3 C 3.33 g/m*3 -4.3 C 0 km/h
64 06-03-2021 06:15:00 -4.3 C 3.33 g/m*3 -4.3 C 0 km/h
65 06-03-2021 06:20:00 -4.3 C 3.33 g/m*3 -4.3 C 0 km/h
66 06-03-2021 06:25:00 -4.3 C 3.33 g/m*3 -4.3 C 0 km/h
67 06-03-2021 06:30:00 -4.3 C 3.33 g/m*3 -4.3 C 0 km/h
68 06-03-2021 06:35:00 -4.3 C 3.33 g/m*3 -4.3 C 0 km/h
69 06-03-2021 06:40:00 -4.3 C 3.33 g/m*3 -4.3 C 0 km/h
70 06-03-2021 06:45:00 -4.3 C 3.33 g/m*3 -4.3 C 0 km/h
71 06-03-2021 06:50:00 -4.3 C 3.33 g/m*3 -4.3 C 0 km/h
72 06-03-2021 06:55:00 -4.4 C 3.31 g/m*3 -4.4 C 0 km/h
73 06-03-2021 07:00:00 -4.3 C 3.33 g/m*3 -4.3 C 0 km/h
74 06-03-2021 07:05:00 -4.4 C 3.31 g/m*3 -4.4 C 0 km/h
75 06-03-2021 07:10:00 -4.4 C 3.31 g/m*3 -4.4 C 0 km/h
Sensor: Nr:Datum:Temp:Abs-Feuchte:Windchill:Wind:
Aussen-T/F 76 06-03-2021 07:15:00 -4.4 C 3.31 g/m*3 -4.4 C 0 km/h
77 06-03-2021 07:20:00 -4.3 C 3.33 g/m*3 -4.3 C 0 km/h
78 06-03-2021 07:25:00 -4.3 C 3.33 g/m*3 -4.3 C 0 km/h
79 06-03-2021 07:30:00 -4.3 C 3.33 g/m*3 -4.3 C 0 km/h
80 06-03-2021 07:35:00 -4.3 C 3.37 g/m*3 -4.3 C 0 km/h
81 06-03-2021 07:40:00 -4.3 C 3.37 g/m*3 -4.3 C 0 km/h
82 06-03-2021 07:45:00 -4.3 C 3.37 g/m*3 -4.3 C 0 km/h
83 06-03-2021 07:50:00 -4.3 C 3.37 g/m*3 -4.3 C 0 km/h
84 06-03-2021 07:55:00 -4.3 C 3.37 g/m*3 -4.3 C 0 km/h
85 06-03-2021 08:00:00 -4.3 C 3.37 g/m*3 -4.3 C 0 km/h
86 06-03-2021 08:05:00 -4.3 C 3.37 g/m*3 -4.3 C 0 km/h
87 06-03-2021 08:10:00 -4.2 C 3.39 g/m*3 -4.2 C 0 km/h
88 06-03-2021 08:15:00 -4.2 C 3.39 g/m*3 -4.2 C 0 km/h
89 06-03-2021 08:20:00 -4.2 C 3.39 g/m*3 -4.2 C 0 km/h
90 06-03-2021 08:25:00 -4.1 C 3.41 g/m*3 -4.1 C 0 km/h
91 06-03-2021 08:30:00 -4.1 C 3.41 g/m*3 -4.1 C 0 km/h
92 06-03-2021 08:35:00 -4 C 3.44 g/m*3 -4 C 0 km/h
93 06-03-2021 08:40:00 -3.9 C 3.46 g/m*3 -3.9 C 0 km/h
94 06-03-2021 08:45:00 -3.8 C 3.49 g/m*3 -3.8 C 0 km/h
95 06-03-2021 08:50:00 -3.8 C 3.49 g/m*3 -3.8 C 0 km/h
96 06-03-2021 08:55:00 -3.7 C 3.51 g/m*3 -3.7 C 0 km/h
97 06-03-2021 09:00:00 -3.7 C 3.51 g/m*3 -3.7 C 0 km/h
98 06-03-2021 09:05:00 -3.6 C 3.54 g/m*3 -3.6 C 0 km/h
99 06-03-2021 09:10:00 -3.4 C 3.59 g/m*3 -3.4 C 0 km/h
100 06-03-2021 09:15:00 -3.3 C 3.61 g/m*3 -3.3 C 0 km/h
Sensor: Nr:Datum:Temp:Abs-Feuchte:Windchill:Wind:
Aussen-T/F 101 06-03-2021 09:20:00 -3.2 C 3.68 g/m*3 -3.2 C 0 km/h
102 06-03-2021 09:25:00 -3.1 C 3.71 g/m*3 -3.1 C 0 km/h
103 06-03-2021 09:30:00 -3 C 3.73 g/m*3 -3 C 0 km/h
104 06-03-2021 09:35:00 -2.9 C 3.76 g/m*3 -2.9 C 0 km/h
105 06-03-2021 09:40:00 -2.8 C 3.78 g/m*3 -2.8 C 0 km/h
106 06-03-2021 09:45:00 -2.7 C 3.81 g/m*3 -2.7 C 0 km/h
107 06-03-2021 09:50:00 -2.6 C 3.84 g/m*3 -2.6 C 0 km/h
108 06-03-2021 09:55:00 -2.5 C 3.87 g/m*3 -2.5 C 0 km/h
109 06-03-2021 10:00:00 -2.3 C 3.92 g/m*3 -2.3 C 0 km/h
110 06-03-2021 10:05:00 -2.2 C 3.95 g/m*3 -2.2 C 0 km/h
111 06-03-2021 10:10:00 -2.1 C 3.98 g/m*3 -2.1 C 0 km/h
112 06-03-2021 10:15:00 -1.9 C 4.03 g/m*3 -1.9 C 0 km/h
113 06-03-2021 10:20:00 -1.7 C 4.09 g/m*3 -1.7 C 0 km/h
114 06-03-2021 10:25:00 -1.5 C 4.15 g/m*3 -1.5 C 1.6 km/h
115 06-03-2021 10:30:00 -1.2 C 4.24 g/m*3 -1.2 C 0 km/h
116 06-03-2021 10:35:00 -0.9 C 4.32 g/m*3 -0.9 C 0 km/h
117 06-03-2021 10:40:00 -0.7 C 4.39 g/m*3 -0.7 C 0 km/h
118 06-03-2021 10:45:00 -0.4 C 4.48 g/m*3 -0.4 C 0 km/h
119 06-03-2021 10:50:00 -0.1 C 4.57 g/m*3 -0.1 C 0 km/h
120 06-03-2021 10:55:00 0.2 C 4.67 g/m*3 0.2 C 0 km/h
121 06-03-2021 11:00:00 0.4 C 4.73 g/m*3 0.4 C 0 km/h
122 06-03-2021 11:05:00 0.6 C 4.75 g/m*3 0.6 C 0 km/h
123 06-03-2021 11:10:00 0.8 C 4.81 g/m*3 0.8 C 0 km/h
124 06-03-2021 11:15:00 1.1 C 4.86 g/m*3 1.1 C 0 km/h
125 06-03-2021 11:20:00 1.3 C 4.87 g/m*3 1.3 C 0 km/h
Sensor: Nr:Datum:Temp:Abs-Feuchte:Windchill:Wind:
Aussen-T/F 126 06-03-2021 11:25:00 1.7 C 5.01 g/m*3 1.7 C 0 km/h
127 06-03-2021 11:30:00 2 C 5 g/m*3 2 C 0 km/h
128 06-03-2021 11:35:00 2.3 C 4.93 g/m*3 2.3 C 0 km/h
129 06-03-2021 11:40:00 2.6 C 4.8 g/m*3 2.6 C 0 km/h
130 06-03-2021 11:45:00 3.1 C 4.67 g/m*3 3.1 C 4.8 km/h
131 06-03-2021 11:50:00 3.4 C 4.58 g/m*3 3.4 C 4.8 km/h
132 06-03-2021 11:55:00 3.7 C 4.61 g/m*3 3.7 C 1.6 km/h
133 06-03-2021 12:00:00 4 C 4.58 g/m*3 4 C 3.2 km/h
134 06-03-2021 12:05:00 4.4 C 4.51 g/m*3 2.4 C 8.1 km/h
135 06-03-2021 12:10:00 4.8 C 4.29 g/m*3 2.15 C 11.3 km/h
136 06-03-2021 12:15:00 5.1 C 4.31 g/m*3 2.51 C 11.3 km/h
137 06-03-2021 12:20:00 5.4 C 4.33 g/m*3 2.87 C 11.3 km/h
138 06-03-2021 12:25:00 5.6 C 4.31 g/m*3 2.83 C 12.9 km/h
139 06-03-2021 12:30:00 5.8 C 4.37 g/m*3 4.52 C 6.4 km/h
140 06-03-2021 12:35:00 5.9 C 4.47 g/m*3 4.63 C 6.4 km/h
141 06-03-2021 12:40:00 6.2 C 4.49 g/m*3 4.98 C 6.4 km/h
142 06-03-2021 12:45:00 6.4 C 4.25 g/m*3 6.4 C 3.2 km/h
143 06-03-2021 12:50:00 6.5 C 4.12 g/m*3 5.33 C 6.4 km/h
144 06-03-2021 12:55:00 6.6 C 3.62 g/m*3 6.6 C 3.2 km/h
145 06-03-2021 13:00:00 6.6 C 3.55 g/m*3 4.99 C 8.1 km/h
146 06-03-2021 13:05:00 6.7 C 3.57 g/m*3 5.56 C 6.4 km/h

Legende:
   Min
   Max


Maximal/Minimal-Werte vom 06.03.2021 - 06.03.2021

Sensor Min Max Avg
Temp
(Aussen-T/F)
-4.4 °C
06-03-2021  06:55:00
6.7 °C
06-03-2021  13:05:00
-2.05 °C
Abs-Feuchte
(Aussen-T/F)
3.31 g/m*3
06-03-2021  06:55:00
5.01 g/m*3
06-03-2021  11:25:00
3.7 g/m*3
Windchill
(Aussen-T/F)
-4.4 C
06-03-2021  06:55:00
6.6 C
06-03-2021  12:55:00
-2.17 C

Die Daten stammen von einer Davis Vantage Pro 2 Wetter-Station und werden unter Linux mit der Software wview2wettercgi und aufbereitet. Alle Angaben erfolgen ohne Gewähr für ihre Vollständigkeit oder Richtigkeit.
Kontakt: Rainer Krienke krienke@uni-koblenz.de . Meine Webseiten an der Uni Koblenz oder privat.
Version: $Revision: 0.78 $